• Join FlightAware (Why Join?)
  • Login
  • US Flag 
05:07PM EDT


 

Airport Tracker/Info


-or-


 

Live Flight TrackerFlight Track Log ✈ AVN20 ✈ 09-Sep-2013 ✈ NVVV / VLI - YBBN / BNE

Flight Track Log - Related Links

Times and Time Zones

All times are in EDT time to prevent confusion due to time zone crossing. See the AVN20 flight status page for this flight to view local times or setup timezone preferences in your user account.

Time Position Orientation Groundspeed Altitude Reporting Facility
EDT Latitude Longitude Course Direction KTS MPH feet Rate Location/Type
01:31AM -18.0527 167.8304 233° Southwest  Level FlightAware Approximate
01:32AM -18.1232 167.7323 233° Southwest  Level FlightAware Approximate
01:33AM -18.1937 167.6341 233° Southwest  Level FlightAware Approximate
01:34AM -18.2642 167.5358 233° Southwest  Level FlightAware Approximate
01:35AM -18.3345 167.4375 233° Southwest  Level FlightAware Approximate
01:36AM -18.4049 167.3391 233° Southwest  Level FlightAware Approximate
01:37AM -18.4751 167.2406 233° Southwest  Level FlightAware Approximate
01:38AM -18.5454 167.1420 233° Southwest  Level FlightAware Approximate
01:39AM -18.6156 167.0433 233° Southwest  Level FlightAware Approximate
01:40AM -18.6857 166.9445 233° Southwest  Level FlightAware Approximate
01:41AM -18.7558 166.8457 233° Southwest  Level FlightAware Approximate
01:42AM -18.8258 166.7468 233° Southwest  Level FlightAware Approximate
01:43AM -18.8958 166.6478 233° Southwest  Level FlightAware Approximate
01:44AM -18.9657 166.5487 233° Southwest  Level FlightAware Approximate
01:45AM -19.0355 166.4495 233° Southwest  Level FlightAware Approximate
01:46AM -19.1054 166.3503 233° Southwest  Level FlightAware Approximate
01:47AM -19.1751 166.2509 233° Southwest  Level FlightAware Approximate
01:48AM -19.2448 166.1515 233° Southwest  Level FlightAware Approximate
01:49AM -19.3145 166.0520 233° Southwest  Level FlightAware Approximate
01:50AM -19.3841 165.9524 233° Southwest  Level FlightAware Approximate
01:51AM -19.4536 165.8528 233° Southwest  Level FlightAware Approximate
01:52AM -19.5231 165.7530 234° Southwest  Level FlightAware Approximate
01:53AM -19.5926 165.6532 234° Southwest  Level FlightAware Approximate
01:54AM -19.6619 165.5532 234° Southwest  Level FlightAware Approximate
01:55AM -19.7313 165.4532 234° Southwest  Level FlightAware Approximate
01:56AM -19.8005 165.3531 234° Southwest  Level FlightAware Approximate
01:57AM -19.8697 165.2529 234° Southwest  Level FlightAware Approximate
01:58AM -19.9389 165.1526 234° Southwest  Level FlightAware Approximate
01:59AM -20.0080 165.0523 234° Southwest  Level FlightAware Approximate
02:00AM -20.0771 164.9518 234° Southwest  Level FlightAware Approximate
02:01AM -20.1460 164.8513 234° Southwest  Level FlightAware Approximate
02:02AM -20.2150 164.7507 234° Southwest  Level FlightAware Approximate
02:03AM -20.2838 164.6499 234° Southwest  Level FlightAware Approximate
02:04AM -20.3527 164.5491 234° Southwest  Level FlightAware Approximate
02:05AM -20.4214 164.4482 234° Southwest  Level FlightAware Approximate
02:06AM -20.4901 164.3472 234° Southwest  Level FlightAware Approximate
02:07AM -20.5588 164.2462 234° Southwest  Level FlightAware Approximate
02:08AM -20.6273 164.1450 234° Southwest  Level FlightAware Approximate
02:09AM -20.6959 164.0437 234° Southwest  Level FlightAware Approximate
02:10AM -20.7643 163.9424 234° Southwest  Level FlightAware Approximate
02:11AM -20.8328 163.8409 234° Southwest  Level FlightAware Approximate
02:12AM -20.9011 163.7394 234° Southwest  Level FlightAware Approximate
02:13AM -20.9694 163.6378 234° Southwest  Level FlightAware Approximate
02:14AM -21.0376 163.5360 234° Southwest  Level FlightAware Approximate
02:15AM -21.1058 163.4342 234° Southwest  Level FlightAware Approximate
02:16AM -21.1739 163.3323 234° Southwest  Level FlightAware Approximate
02:17AM -21.2419 163.2303 234° Southwest  Level FlightAware Approximate
02:18AM -21.3099 163.1282 234° Southwest  Level FlightAware Approximate
02:19AM -21.3778 163.0260 234° Southwest  Level FlightAware Approximate
02:20AM -21.4457 162.9237 235° Southwest  Level FlightAware Approximate
02:21AM -21.5135 162.8214 235° Southwest  Level FlightAware Approximate
02:22AM -21.5812 162.7189 235° Southwest  Level FlightAware Approximate
02:22AM -21.6472 162.6188 235° Southwest 40,000  Level Aus ATC (Calculated)
02:24AM -21.7573 162.4514 235° Southwest  Level FlightAware Approximate
02:25AM -21.8158 162.3624 235° Southwest  Level FlightAware Approximate
02:25AM -21.8676 162.2834 235° Southwest 40,000  Level Aus ATC (Calculated)
02:27AM -21.9774 162.1155 235° Southwest  Level FlightAware Approximate
02:27AM -21.9795 162.1123 235° Southwest 40,000  Level Aus ATC (Calculated)
02:29AM -22.0949 161.9352 235° Southwest  Level FlightAware Approximate
02:29AM -22.1365 161.8713 235° Southwest 40,000  Level Aus ATC (Calculated)
02:31AM -22.2479 161.6998 235° Southwest  Level FlightAware Approximate
02:32AM -22.3059 161.6102 235° Southwest  Level FlightAware Approximate
02:33AM -22.3639 161.5205 235° Southwest  Level FlightAware Approximate
02:34AM -22.4218 161.4307 235° Southwest  Level FlightAware Approximate
02:35AM -22.4797 161.3409 235° Southwest  Level FlightAware Approximate
02:36AM -22.5375 161.2510 235° Southwest  Level FlightAware Approximate
02:37AM -22.5953 161.1610 235° Southwest  Level FlightAware Approximate
02:38AM -22.6530 161.0709 235° Southwest  Level FlightAware Approximate
02:39AM -22.7107 160.9808 235° Southwest  Level FlightAware Approximate
02:40AM -22.7683 160.8906 235° Southwest  Level FlightAware Approximate
02:41AM -22.8259 160.8003 235° Southwest  Level FlightAware Approximate
02:42AM -22.8834 160.7099 235° Southwest  Level FlightAware Approximate
02:43AM -22.9409 160.6195 235° Southwest  Level FlightAware Approximate
02:44AM -22.9983 160.5290 235° Southwest  Level FlightAware Approximate
02:45AM -23.0557 160.4384 235° Southwest  Level FlightAware Approximate
02:46AM -23.1130 160.3477 235° Southwest  Level FlightAware Approximate
02:47AM -23.1702 160.2570 236° Southwest  Level FlightAware Approximate
02:48AM -23.2274 160.1662 236° Southwest  Level FlightAware Approximate
02:49AM -23.2846 160.0753 236° Southwest  Level FlightAware Approximate
02:50AM -23.3417 159.9843 236° Southwest  Level FlightAware Approximate
02:51AM -23.3988 159.8932 236° Southwest  Level FlightAware Approximate
02:52AM -23.4558 159.8021 236° Southwest  Level FlightAware Approximate
02:53AM -23.5127 159.7109 236° Southwest  Level FlightAware Approximate
02:54AM -23.5696 159.6196 236° Southwest  Level FlightAware Approximate
02:55AM -23.6268 159.5284 236° Southwest  Level Estimated
02:56AM -23.6838 159.4371 236° Southwest  Level FlightAware Approximate
02:57AM -23.7407 159.3458 236° Southwest  Level FlightAware Approximate
02:58AM -23.7977 159.2543 236° Southwest  Level FlightAware Approximate
02:59AM -23.8545 159.1628 236° Southwest  Level FlightAware Approximate
03:00AM -23.9113 159.0712 236° Southwest  Level FlightAware Approximate
03:01AM -23.9681 158.9796 236° Southwest  Level FlightAware Approximate
03:02AM -24.0248 158.8878 236° Southwest  Level FlightAware Approximate
03:03AM -24.0814 158.7959 236° Southwest  Level FlightAware Approximate
03:04AM -24.1380 158.7040 236° Southwest  Level FlightAware Approximate
03:05AM -24.1945 158.6120 236° Southwest  Level FlightAware Approximate
03:05AM -24.6861 157.8043 237° Southwest 40,000  Level Aus ATC (Calculated)
03:06AM -24.2510 158.5199 236° Southwest  Level FlightAware Approximate
03:07AM -24.7526 157.6941 236° Southwest  Level FlightAware Approximate
03:08AM -24.8139 157.5923 236° Southwest  Level FlightAware Approximate
03:09AM -24.8751 157.4903 236° Southwest  Level FlightAware Approximate
03:10AM -24.9363 157.3883 237° Southwest  Level FlightAware Approximate
03:11AM -24.9974 157.2861 237° Southwest  Level FlightAware Approximate
03:11AM -25.0427 157.2103 239° Southwest 40,000  Level Aus ATC (Calculated)
03:13AM -25.1524 157.0261 237° Southwest  Level FlightAware Approximate
03:14AM -25.2132 156.9236 237° Southwest  Level FlightAware Approximate
03:14AM -25.3005 156.7762 57° Northeast 40,000  Level Aus ATC (Calculated)
03:15AM -25.2740 156.8210 237° Southwest  Level FlightAware Approximate
03:16AM -25.3692 156.6597 237° Southwest  Level FlightAware Approximate
03:17AM -25.4298 156.5569 237° Southwest  Level FlightAware Approximate
03:18AM -25.4903 156.4539 237° Southwest  Level FlightAware Approximate
03:19AM -25.5508 156.3508 237° Southwest  Level FlightAware Approximate
03:20AM -25.6112 156.2476 237° Southwest  Level FlightAware Approximate
03:21AM -25.6715 156.1443 237° Southwest  Level FlightAware Approximate
03:22AM -25.7317 156.0410 237° Southwest  Level FlightAware Approximate
03:23AM -25.6715 156.1443 57° Northeast  Level FlightAware Approximate
03:24AM -25.7317 156.0410 237° Southwest  Level FlightAware Approximate
03:24AM -26.0569 155.6953 54° Northeast 16,500  Level Aus ATC (Calculated)
03:25AM -25.6715 156.1443 57° Northeast  Level FlightAware Approximate
03:25AM -26.1135 155.6331 53° Northeast 16,500  Level Aus ATC (Calculated)
03:25AM -26.1135 155.6331 53° Northeast 16,500 7,620 Level Aus ATC (Calculated)
03:26AM -26.2266 155.5087 53° Northeast 16,500 9,060 Level Aus ATC (Calculated)
03:27AM -26.2832 155.4464 52° Northeast 16,500 12,240 Level Aus ATC (Calculated)
03:28AM -25.0633 157.1725 57° Northeast 378 435 40,000 18,060 Climbing Aus ATC (RADAR)
03:28AM -25.0786 157.1484 235° Southwest 377 434 40,000  Level Aus ATC (RADAR)
03:29AM -25.1129 157.0917 236° Southwest 377 434 40,000  Level Aus ATC (RADAR)
03:30AM -25.1566 157.0172 237° Southwest 377 434 40,000  Level Aus ATC (RADAR)
03:30AM -25.1912 156.9601 236° Southwest 378 435 40,000  Level Aus ATC (RADAR)
03:31AM -25.2261 156.9032 236° Southwest 377 434 40,000  Level Aus ATC (RADAR)
03:31AM -25.2703 156.8289 237° Southwest 380 437 40,000  Level Aus ATC (RADAR)
03:32AM -25.3050 156.7716 236° Southwest 379 436 40,000  Level Aus ATC (RADAR)
03:33AM -25.3771 156.6453 238° Southwest 383 441 40,000  Level Aus ATC (RADAR)
03:34AM -25.4070 156.5956 236° Southwest 383 441 40,000  Level Aus ATC (RADAR)
03:34AM -25.4316 156.5541 237° Southwest 382 440 40,000  Level Aus ATC (RADAR)
03:35AM -25.4796 156.4695 238° Southwest 383 441 40,000  Level Aus ATC (RADAR)
03:36AM -25.5143 156.4119 236° Southwest 381 438 40,000 120 Level Aus ATC (RADAR)
03:36AM -25.5589 156.3377 236° Southwest 381 438 40,200 180 Climbing Aus ATC (RADAR)
03:37AM -25.5772 156.3033 239° Southwest 381 438 40,200  Level Aus ATC (RADAR)
03:37AM -25.6106 156.2445 238° Southwest 382 440 40,200 -180 Level Aus ATC (RADAR)
03:38AM -25.6680 156.1500 237° Southwest 386 444 40,000  Descending FlightAware
03:39AM -25.6880 156.1123 237° Southwest 379 436 40,200  Climbing Aus ATC (RADAR)
03:39AM -25.6990 156.0970 237° Southwest 386 444 40,000  Descending FlightAware
03:39AM -25.7353 156.0401 237° Southwest 383 441 40,200  Climbing Aus ATC (RADAR)
03:40AM -25.7470 156.0290 237° Southwest 388 447 40,000 -300 Descending FlightAware
03:40AM -25.8000 155.9760 222° Southwest 374 430 40,000  Level FlightAware
03:41AM -25.8320 155.9410 225° Southwest 371 427 40,000  Level FlightAware
03:41AM -25.8790 155.8900 224° Southwest 368 423 40,000  Level FlightAware
03:42AM -25.9280 155.8360 225° Southwest 367 422 40,000  Level FlightAware
03:42AM -25.9630 155.7980 224° Southwest 365 420 40,000 180 Level FlightAware
03:43AM -26.0082 155.7501 224° Southwest 362 417 40,200  Climbing Aus ATC (RADAR)
03:43AM -26.0130 155.7440 224° Southwest 365 420 40,000 -360 Descending FlightAware
03:44AM -26.0460 155.7080 224° Southwest 365 420 40,000  Level FlightAware
03:44AM -26.0890 155.6600 225° Southwest 366 421 40,000  Level FlightAware
03:45AM -26.1390 155.6050 225° Southwest 366 421 40,000  Level FlightAware
03:45AM -26.1810 155.5580 225° Southwest 367 422 40,000  Level FlightAware
03:46AM -26.2160 155.5200 224° Southwest 367 422 40,000  Level FlightAware
03:47AM -26.2560 155.4760 225° Southwest 368 423 40,000  Level FlightAware
03:47AM -26.3080 155.4190 224° Southwest 368 423 40,000  Level FlightAware
03:48AM -26.3440 155.3790 225° Southwest 367 422 40,000 180 Level FlightAware
03:48AM -26.3811 155.3388 225° Southwest 365 420 40,200  Climbing Aus ATC (RADAR)
03:48AM -26.3860 155.3320 225° Southwest 367 422 40,000  Descending FlightAware
03:49AM -26.4233 155.2923 225° Southwest 365 420 40,200  Climbing Aus ATC (RADAR)
03:49AM -26.4310 155.2830 225° Southwest 368 423 40,000 -300 Descending FlightAware
03:49AM -26.4720 155.2380 224° Southwest 368 423 40,000  Level FlightAware
03:50AM -26.5150 155.1900 225° Southwest 369 425 40,000  Level FlightAware
03:51AM -26.5580 155.1420 225° Southwest 369 425 40,000 -600 Level FlightAware
03:51AM -26.6000 155.0950 225° Southwest 359 413 39,300 -1,260 Descending FlightAware
03:52AM -26.6379 155.0526 225° Southwest 354 407 38,600 -1,560 Descending Aus ATC (RADAR)
03:52AM -26.6400 155.0500 225° Southwest 350 403 38,400 -1,920 Descending FlightAware
03:52AM -26.6800 155.0070 224° Southwest 340 391 37,400 -1,560 Descending FlightAware
03:53AM -26.7180 154.9640 225° Southwest 330 380 36,600 -1,140 Descending FlightAware
03:54AM -26.7560 154.9220 225° Southwest 337 388 36,100 -1,320 Descending FlightAware
03:54AM -26.7950 154.8780 225° Southwest 330 380 35,100 -1,680 Descending FlightAware
03:55AM -26.8330 154.8360 225° Southwest 331 381 34,200 -1,680 Descending FlightAware
03:55AM -26.8700 154.7940 225° Southwest 325 374 33,200 -1,320 Descending FlightAware
03:56AM -26.9140 154.7450 225° Southwest 328 377 32,600 -1,080 Descending FlightAware
03:57AM -26.9529 154.7004 225° Southwest 326 375 31,800 -1,500 Descending Aus ATC (RADAR)
03:57AM -26.9540 154.7000 225° Southwest 324 373 31,600 -1,980 Descending FlightAware
03:57AM -26.9920 154.6570 225° Southwest 328 377 30,600 -1,740 Descending FlightAware
03:58AM -27.0320 154.6120 225° Southwest 325 374 29,500 -1,800 Descending FlightAware
03:58AM -27.0730 154.5660 225° Southwest 323 372 28,400 -1,560 Descending FlightAware
03:59AM -27.0756 154.5625 225° Southwest 326 375 28,500 -1,560 Climbing Aus ATC (RADAR)
03:59AM -27.1080 154.5270 225° Southwest 317 365 27,500 -1,860 Descending FlightAware
04:00AM -27.1460 154.4840 225° Southwest 321 369 26,400 -1,620 Descending FlightAware
04:00AM -27.1798 154.4452 225° Southwest 320 368 25,700 -1,740 Descending Aus ATC (RADAR)
04:00AM -27.1830 154.4420 225° Southwest 323 372 25,400 -1,380 Descending FlightAware
04:01AM -27.2179 154.4032 225° Southwest 330 380 24,900 -1,080 Descending Aus ATC (RADAR)
04:01AM -27.2200 154.4000 225° Southwest 338 389 24,800 -1,440 Descending FlightAware
04:01AM -27.2600 154.3550 225° Southwest 337 388 24,000 -1,380 Descending FlightAware
04:02AM -27.2947 154.3160 225° Southwest 335 386 23,300 -1,740 Descending Aus ATC (RADAR)
04:02AM -27.2980 154.3110 225° Southwest 330 380 23,000 -1,740 Descending FlightAware
04:03AM -27.3321 154.2736 225° Southwest 329 379 22,300 -1,560 Descending Aus ATC (RADAR)
04:03AM -27.3350 154.2700 225° Southwest 326 375 22,100 -2,100 Descending FlightAware
04:03AM -27.3690 154.2310 226° Southwest 326 375 21,000 -1,740 Descending FlightAware
04:04AM -27.4090 154.1850 226° Southwest 322 371 20,100 -1,680 Descending FlightAware
04:04AM -27.4460 154.1440 225° Southwest 322 371 19,100 -1,740 Descending FlightAware
04:05AM -27.4830 154.1020 225° Southwest 333 383 18,100 -1,740 Descending FlightAware
04:05AM -27.5080 154.0700 229° Southwest 333 383 17,400 -1,680 Descending FlightAware
04:05AM -27.5130 154.0530 252° West 332 382 17,100 -1,800 Descending FlightAware
04:06AM -27.5150 154.0360 262° West 331 381 16,800 -1,740 Descending FlightAware
04:06AM -27.5050 153.9680 279° West 320 368 15,700 -1,680 Descending FlightAware
04:07AM -27.4970 153.9200 281° West 315 362 14,900 -1,620 Descending FlightAware
04:08AM -27.4850 153.8480 281° West 311 358 13,700 -1,440 Descending FlightAware
04:08AM -27.4843 153.8452 281° West 306 352 13,800 -1,560 Climbing Aus ATC (RADAR)
04:08AM -27.4760 153.7930 280° West 311 358 12,800 -1,680 Descending FlightAware
04:09AM -27.4660 153.7370 281° West 307 353 11,900 -1,560 Descending FlightAware
04:09AM -27.4580 153.6830 279° West 302 348 11,000 -1,740 Descending FlightAware
04:10AM -27.4480 153.6290 282° West 302 348 9,900 -1,800 Descending FlightAware
04:10AM -27.4440 153.5990 279° West 299 344 9,400 -1,500 Descending FlightAware
04:11AM -27.4390 153.5690 281° West 297 342 8,900 -1,680 Descending FlightAware
04:11AM -27.4330 153.5370 282° West 296 341 8,300 -1,740 Descending FlightAware
04:11AM -27.4310 153.5150 276° West 295 339 7,900 -1,200 Descending FlightAware
04:12AM -27.4410 153.4790 253° West 293 337 7,500 -960 Descending FlightAware
04:12AM -27.4540 153.4500 243° Southwest 291 335 7,200 -780 Descending FlightAware
04:12AM -27.4650 153.4240 245° Southwest 286 329 7,000 -780 Descending FlightAware
04:13AM -27.4770 153.3980 243° Southwest 281 323 6,700 -840 Descending FlightAware
04:13AM -27.4910 153.3650 244° Southwest 280 322 6,400 -900 Descending FlightAware
04:13AM -27.4960 153.3540 243° Southwest 280 322 6,200 -780 Descending FlightAware
04:13AM -27.5080 153.3270 243° Southwest 280 322 6,000 -780 Descending FlightAware
04:14AM -27.5200 153.2990 244° Southwest 280 322 5,700 -840 Descending FlightAware
04:14AM -27.5340 153.2660 244° Southwest 283 326 5,400 -840 Descending FlightAware
04:15AM -27.5450 153.2410 244° Southwest 277 319 5,100 -900 Descending FlightAware
04:15AM -27.5570 153.2160 242° Southwest 269 310 4,800 -780 Descending FlightAware
04:15AM -27.5680 153.1890 245° Southwest 265 305 4,600 -720 Descending FlightAware
04:15AM -27.5760 153.1720 242° Southwest 261 300 4,400 -900 Descending FlightAware
04:16AM -27.5860 153.1480 245° Southwest 253 291 4,100 -840 Descending FlightAware
04:16AM -27.5980 153.1180 246° West 240 276 3,800 -600 Descending FlightAware
04:16AM -27.5980 153.1170 270° West 238 274 3,800 -480 Level FlightAware
04:17AM -27.5930 153.0890 281° West 219 252 3,600 -780 Descending FlightAware
04:17AM -27.5880 153.0700 287° West 207 238 3,300 -540 Descending FlightAware
04:17AM -27.5810 153.0450 288° West 190 219 3,200 -420 Descending FlightAware
04:17AM -27.5780 153.0390 299° West 183 211 3,100 -600 Descending FlightAware
04:18AM -27.5760 153.0370 318° Northwest 178 205 3,100 -420 Level FlightAware
04:18AM -27.5680 153.0320 331° Northwest 169 194 3,000 -420 Descending FlightAware
04:18AM -27.5640 153.0310 348° North 163 188 3,000 -420 Level FlightAware
04:18AM -27.5470 153.0360 15° North 158 182 2,800 -420 Descending FlightAware
04:19AM -27.5330 153.0440 27° Northeast 154 177 2,700 -600 Descending FlightAware
04:19AM -27.5200 153.0510 26° Northeast 153 176 2,400 -900 Descending FlightAware
04:19AM -27.5080 153.0580 27° Northeast 150 173 2,100 -780 Descending FlightAware
04:20AM -27.4960 153.0650 27° Northeast 146 168 1,900 -780 Descending FlightAware
04:20AM -27.4840 153.0720 27° Northeast 139 160 1,600 -720 Descending FlightAware
04:20AM -27.4680 153.0810 27° Northeast 129 148 1,300 -720 Descending FlightAware
04:21AM -27.4570 153.0870 26° Northeast 126 145 1,000 -720 Descending FlightAware
04:21AM -27.4440 153.0950 29° Northeast 125 144 800 -720 Descending FlightAware
04:21AM -27.4330 153.1010 26° Northeast 129 148 500 -780 Descending FlightAware
04:22AM -27.4230 153.1070 28° Northeast 126 145 300 -600 Descending FlightAware
04:22AM -27.4090 153.1140 24° Northeast 127 146 -720 Descending FlightAware
04:23AM -27.3950 153.1230 30° Northeast 78 90  Level FlightAware